createdAt,value
2023-04-02T00:02:47.045Z,2.88
2023-04-02T00:08:21.982Z,1.58
2023-04-02T00:13:47.721Z,1.67
2023-04-02T00:19:19.188Z,1.60
2023-04-02T00:24:43.397Z,1.30
2023-04-02T00:30:09.912Z,1.63
2023-04-02T00:35:40.554Z,1.50
2023-04-02T00:41:07.276Z,1.95
2023-04-02T00:46:34.739Z,1.60
2023-04-02T00:52:03.051Z,1.92
2023-04-02T00:57:28.325Z,1.45
2023-04-02T01:03:29.826Z,1.98
2023-04-02T01:09:11.503Z,2.15
2023-04-02T01:14:45.157Z,1.92
2023-04-02T01:20:44.105Z,1.40
2023-04-02T01:26:15.866Z,1.52
2023-04-02T01:31:42.780Z,1.60
2023-04-02T01:37:16.844Z,2.55
2023-04-02T01:42:48.275Z,1.90
2023-04-02T01:48:18.020Z,1.92
2023-04-02T01:53:41.932Z,2.53
2023-04-02T01:59:07.792Z,1.73
2023-04-02T02:04:36.440Z,3.38
2023-04-02T02:10:02.974Z,1.75
2023-04-02T02:15:26.803Z,2.28
2023-04-02T02:20:52.951Z,1.90
2023-04-02T02:26:17.258Z,2.17
2023-04-02T02:31:44.645Z,3.42
2023-04-02T02:37:18.940Z,1.70
2023-04-02T02:42:49.173Z,1.95
2023-04-02T02:48:16.439Z,1.65
2023-04-02T02:53:51.746Z,1.70
2023-04-02T02:59:17.230Z,2.72
2023-04-02T03:04:41.830Z,4.68
2023-04-02T03:10:18.140Z,1.65
2023-04-02T03:15:49.067Z,2.07
2023-04-02T03:21:26.747Z,2.00
2023-04-02T03:26:57.364Z,2.25
2023-04-02T03:32:27.813Z,2.15
2023-04-02T03:37:57.088Z,2.25
2023-04-02T03:43:25.917Z,2.03
2023-04-02T03:48:55.818Z,2.00
2023-04-02T03:54:21.390Z,4.38
2023-04-02T03:59:52.890Z,2.40
2023-04-02T04:05:24.256Z,1.85
2023-04-02T04:10:54.864Z,2.08
2023-04-02T04:16:24.881Z,2.88
2023-04-02T04:21:50.265Z,2.55
2023-04-02T04:27:34.714Z,3.17
2023-04-02T04:33:05.986Z,2.38
2023-04-02T04:38:33.792Z,2.67
2023-04-02T04:44:05.624Z,2.53
2023-04-02T04:49:34.718Z,2.95
2023-04-02T04:54:59.745Z,4.28
2023-04-02T05:00:34.086Z,3.08
2023-04-02T05:06:07.132Z,2.55
2023-04-02T05:11:35.959Z,2.40
2023-04-02T05:17:07.036Z,2.10
2023-04-02T05:22:41.334Z,2.03
2023-04-02T05:28:13.891Z,1.95
2023-04-02T05:33:39.745Z,2.42
2023-04-02T05:39:10.120Z,2.53
2023-04-02T05:44:59.505Z,1.90
2023-04-02T05:50:30.447Z,4.45
2023-04-02T05:55:59.649Z,2.20
2023-04-02T06:01:34.935Z,3.33
2023-04-02T06:07:08.248Z,1.98
2023-04-02T06:12:40.484Z,3.23
2023-04-02T06:18:09.519Z,2.90
2023-04-02T06:23:39.336Z,2.17
2023-04-02T06:29:10.106Z,1.85
2023-04-02T06:34:37.488Z,1.73
2023-04-02T06:40:26.462Z,1.80
2023-04-02T06:45:54.319Z,1.80
2023-04-02T06:51:28.511Z,1.85
2023-04-02T06:56:54.413Z,1.83
2023-04-02T07:02:42.002Z,1.30
2023-04-02T07:08:09.232Z,1.58
2023-04-02T07:13:33.102Z,1.42
2023-04-02T07:18:59.758Z,1.77
2023-04-02T07:24:26.396Z,1.92
2023-04-02T07:29:50.204Z,2.00
2023-04-02T07:35:15.542Z,1.83
2023-04-02T07:40:39.556Z,1.30
2023-04-02T07:46:03.389Z,1.20
2023-04-02T07:51:29.533Z,2.22
2023-04-02T07:56:53.260Z,1.52
2023-04-02T08:02:21.196Z,6.93
2023-04-02T08:07:54.037Z,1.63
2023-04-02T08:13:19.271Z,2.20
2023-04-02T08:18:43.050Z,4.03
2023-04-02T08:24:08.581Z,2.53
2023-04-02T08:29:33.213Z,2.50
2023-04-02T08:34:57.122Z,2.13
2023-04-02T08:40:30.730Z,2.20
2023-04-02T08:46:05.841Z,2.80
2023-04-02T08:51:33.614Z,2.00
2023-04-02T08:57:03.300Z,3.17
2023-04-02T09:02:33.148Z,2.35
2023-04-02T09:07:59.427Z,2.05
2023-04-02T09:13:28.231Z,1.77
2023-04-02T09:18:55.144Z,2.00
2023-04-02T09:24:18.900Z,4.82
2023-04-02T09:29:46.500Z,2.28
2023-04-02T09:35:25.539Z,2.35
2023-04-02T09:40:52.034Z,2.90
2023-04-02T09:46:22.722Z,2.13
2023-04-02T09:51:46.844Z,2.50
2023-04-02T09:57:24.086Z,2.47
2023-04-02T10:03:02.627Z,4.85
2023-04-02T10:08:28.498Z,7.85
2023-04-02T10:13:54.920Z,2.85
2023-04-02T10:19:27.642Z,2.80
2023-04-02T10:24:52.201Z,2.83
2023-04-02T10:30:21.914Z,2.35
2023-04-02T10:35:55.931Z,5.05
2023-04-02T10:41:30.222Z,2.85
2023-04-02T10:47:08.125Z,2.17
2023-04-02T10:52:39.667Z,3.35
2023-04-02T10:58:09.750Z,2.40
2023-04-02T11:03:40.031Z,7.33
2023-04-02T11:09:08.825Z,2.67
2023-04-02T11:14:34.234Z,1.95
2023-04-02T11:20:40.649Z,2.33
2023-04-02T11:32:13.531Z,1.90
2023-04-02T11:37:39.740Z,2.35
2023-04-02T11:43:51.432Z,2.05
2023-04-02T11:49:57.706Z,2.15
2023-04-02T11:55:30.766Z,2.58
2023-04-02T12:01:14.954Z,4.10
2023-04-02T12:06:54.983Z,2.05
2023-04-02T12:12:26.266Z,3.53
2023-04-02T12:17:52.048Z,2.10
2023-04-02T12:23:21.586Z,2.15
2023-04-02T12:28:46.593Z,1.92
2023-04-02T12:34:21.968Z,2.40
2023-04-02T12:39:53.645Z,2.10
2023-04-02T12:45:25.699Z,1.98
2023-04-02T12:50:52.985Z,1.80
2023-04-02T12:56:21.473Z,2.47
2023-04-02T13:01:56.785Z,1.52
2023-04-02T13:07:25.432Z,1.67
2023-04-02T13:12:49.359Z,1.73
2023-04-02T13:18:20.897Z,1.50
2023-04-02T13:23:46.768Z,2.03
2023-04-02T13:29:21.142Z,1.92
2023-04-02T13:34:44.954Z,2.03
2023-04-02T13:40:14.963Z,1.80
2023-04-02T13:45:40.456Z,1.70
2023-04-02T13:51:04.278Z,1.70
2023-04-02T13:56:29.890Z,4.00
2023-04-02T14:01:57.064Z,1.95
2023-04-02T14:07:39.339Z,1.67
2023-04-02T14:13:13.621Z,1.75
2023-04-02T14:18:59.094Z,1.35
2023-04-02T14:24:31.248Z,1.58
2023-04-02T14:30:03.026Z,1.80
2023-04-02T14:35:32.395Z,1.55
2023-04-02T14:41:01.295Z,2.33
2023-04-02T14:46:28.911Z,3.75
2023-04-02T14:51:59.782Z,3.50
2023-04-02T14:57:25.295Z,4.97
2023-04-02T15:02:54.529Z,2.45
2023-04-02T15:08:22.536Z,2.10
2023-04-02T15:13:52.694Z,2.88
2023-04-02T15:19:19.448Z,2.30
2023-04-02T15:24:52.188Z,3.30
2023-04-02T15:30:22.169Z,3.97
2023-04-02T15:35:53.027Z,2.72
2023-04-02T15:41:23.810Z,4.22
2023-04-02T15:46:56.686Z,3.55
2023-04-02T15:52:30.222Z,3.45
2023-04-02T15:58:10.230Z,3.30
2023-04-02T16:04:04.815Z,3.85
2023-04-02T16:09:37.388Z,2.90
2023-04-02T16:15:09.134Z,3.00
2023-04-02T16:20:37.599Z,2.00
2023-04-02T16:26:13.087Z,2.15
2023-04-02T16:31:42.412Z,1.40
2023-04-02T16:37:17.325Z,1.85
2023-04-02T16:42:51.064Z,1.10
2023-04-02T16:48:22.006Z,1.77
2023-04-02T16:54:01.601Z,1.23
2023-04-02T16:59:36.361Z,5.07
2023-04-02T17:05:07.233Z,1.83
2023-04-02T17:10:33.114Z,3.83
2023-04-02T17:16:05.474Z,4.90
2023-04-02T17:21:30.834Z,4.70
2023-04-02T17:26:58.320Z,1.40
2023-04-02T17:32:29.839Z,3.70
2023-04-02T17:38:03.652Z,2.75
2023-04-02T17:43:43.087Z,2.00
2023-04-02T17:49:22.880Z,2.45
2023-04-02T17:54:56.159Z,3.50
2023-04-02T18:00:36.387Z,2.63
2023-04-02T18:06:07.095Z,10.40
2023-04-02T18:11:39.315Z,4.17
2023-04-02T18:17:10.638Z,7.50
2023-04-02T18:22:45.002Z,4.55
2023-04-02T18:28:28.060Z,3.28
2023-04-02T18:34:19.729Z,4.55
2023-04-02T18:45:22.989Z,5.00
2023-04-02T18:50:47.437Z,9.50
2023-04-02T18:56:17.215Z,3.97
2023-04-02T19:01:44.521Z,6.15
2023-04-02T19:07:13.309Z,6.13
2023-04-02T19:12:38.449Z,4.15
2023-04-02T19:18:12.519Z,6.03
2023-04-02T19:23:51.256Z,4.90
2023-04-02T19:29:27.298Z,4.88
2023-04-02T19:34:58.876Z,6.10
2023-04-02T19:40:36.906Z,5.25
2023-04-02T19:46:03.219Z,4.30
2023-04-02T19:51:27.239Z,4.72
2023-04-02T19:56:51.426Z,5.93
2023-04-02T20:02:16.730Z,3.78
2023-04-02T20:07:40.957Z,6.53
2023-04-02T20:13:05.057Z,5.85
2023-04-02T20:18:31.432Z,7.18
2023-04-02T20:23:55.407Z,6.20
2023-04-02T20:29:19.168Z,8.20
2023-04-02T20:34:44.614Z,6.88
2023-04-02T20:40:10.035Z,4.10
2023-04-02T20:45:33.887Z,7.57
2023-04-02T20:50:59.590Z,5.03
2023-04-02T20:56:24.437Z,6.50
2023-04-02T21:01:48.182Z,5.15
2023-04-02T21:07:13.369Z,4.25
2023-04-02T21:12:37.142Z,5.88
2023-04-02T21:18:01.069Z,5.38
2023-04-02T21:23:26.398Z,4.32
2023-04-02T21:28:50.176Z,4.28
2023-04-02T21:34:15.951Z,7.32
2023-04-02T21:39:41.090Z,7.40
2023-04-02T21:45:05.378Z,5.70
2023-04-02T21:50:29.637Z,4.13
2023-04-02T21:56:02.093Z,5.10
2023-04-02T22:01:28.225Z,4.53
2023-04-02T22:06:53.268Z,4.63
2023-04-02T22:12:18.398Z,5.03
2023-04-02T22:17:42.205Z,5.07
2023-04-02T22:23:06.193Z,6.10
2023-04-02T22:28:31.640Z,6.20
2023-04-02T22:33:56.496Z,6.72
2023-04-02T22:39:20.354Z,6.45
2023-04-02T22:44:45.642Z,6.95
2023-04-02T22:50:10.052Z,6.07
2023-04-02T22:55:33.827Z,7.35
2023-04-02T23:01:04.480Z,8.27
2023-04-02T23:06:29.106Z,8.38
2023-04-02T23:11:52.813Z,7.50
2023-04-02T23:17:18.004Z,7.82
2023-04-02T23:22:41.717Z,6.90
2023-04-02T23:28:05.816Z,6.43
2023-04-02T23:33:31.199Z,6.95
2023-04-02T23:38:56.659Z,5.65
2023-04-02T23:44:20.491Z,7.63
2023-04-02T23:49:47.909Z,6.60
2023-04-02T23:55:12.235Z,7.65
